Time;durP1;ratioP1;P1;durP2;ratioP2;P2;SDS_P1;SDS_P2;PMS_P1;PMS_P2;Temp;Humidity;BMP_temperature;BMP_pressure;BME280_temperature;BME280_humidity;BME280_pressure;Samples;Min_cycle;Max_cycle;Signal;HPM_P1;HPM_P2
2021/04/30 00:02:59;;;;;;;15.05;7.10;;;;;;;7.00;99.87;101194.16;10392161;28;21241;-80
2021/04/30 00:08:00;;;;;;;21.83;8.35;;;;;;;7.00;99.44;101194.16;10368903;28;20752;-80
2021/04/30 00:13:01;;;;;;;24.15;7.88;;;;;;;7.05;100.00;101207.41;10365827;28;20060;-81
2021/04/30 00:18:05;;;;;;;21.60;8.40;;;;;;;7.09;100.00;101208.34;10386624;28;20091;-81
2021/04/30 00:23:12;;;;;;;18.55;8.65;;;;;;;7.13;99.81;101214.66;10355133;28;20033;-79
2021/04/30 00:28:15;;;;;;;24.25;8.50;;;;;;;7.17;99.72;101210.19;10369966;28;20048;-80
2021/04/30 00:33:17;;;;;;;16.73;8.38;;;;;;;7.02;99.08;101181.19;10385697;28;20029;-78
2021/04/30 00:38:18;;;;;;;20.33;8.13;;;;;;;6.72;100.00;101166.97;10372364;28;20041;-78
2021/04/30 00:43:19;;;;;;;25.87;9.00;;;;;;;6.85;100.00;101181.31;10400737;28;20080;-79
2021/04/30 00:48:21;;;;;;;22.10;9.75;;;;;;;6.54;100.00;101166.28;10397785;28;20736;-79
2021/04/30 00:53:21;;;;;;;18.45;8.80;;;;;;;6.27;100.00;101130.69;10386248;28;20068;-79
2021/04/30 00:58:22;;;;;;;22.70;8.93;;;;;;;6.63;100.00;101175.09;10365908;28;20543;-81
2021/04/30 01:03:22;;;;;;;20.48;8.32;;;;;;;6.86;100.00;101188.25;10388212;28;20034;-78
2021/04/30 01:08:23;;;;;;;24.13;8.93;;;;;;;6.91;100.00;101196.91;10362503;28;20219;-78
2021/04/30 01:13:24;;;;;;;22.52;8.52;;;;;;;6.99;100.00;101219.47;10384456;28;20075;-79
2021/04/30 01:18:24;;;;;;;27.15;8.98;;;;;;;6.97;100.00;101221.69;10382969;28;20075;-79
2021/04/30 01:23:25;;;;;;;22.25;8.35;;;;;;;6.58;100.00;101156.47;10379067;28;20180;-80
2021/04/30 01:28:25;;;;;;;20.15;8.30;;;;;;;6.83;100.00;101194.28;10360811;28;20693;-77
2021/04/30 01:33:26;;;;;;;20.55;7.07;;;;;;;6.72;100.00;101173.13;10382772;28;20040;-78
2021/04/30 01:38:27;;;;;;;21.40;8.52;;;;;;;6.67;100.00;101176.00;10333084;28;20148;-81
2021/04/30 01:43:28;;;;;;;21.55;8.40;;;;;;;7.04;100.00;101227.34;10376282;28;20043;-79
2021/04/30 01:48:32;;;;;;;21.60;8.32;;;;;;;6.95;100.00;101213.16;10382282;28;20052;-80
2021/04/30 01:53:35;;;;;;;20.63;7.50;;;;;;;7.08;100.00;101228.28;10356377;28;20088;-80
2021/04/30 01:58:36;;;;;;;23.55;7.93;;;;;;;7.12;100.00;101223.81;10384440;28;20482;-80
2021/04/30 02:03:37;;;;;;;25.65;8.07;;;;;;;7.09;100.00;101229.84;10385551;28;20040;-80
2021/04/30 02:08:38;;;;;;;20.70;8.20;;;;;;;6.77;100.00;101175.66;10383991;28;20486;-79
2021/04/30 02:13:38;;;;;;;29.48;8.52;;;;;;;6.99;100.00;101214.09;10380186;28;20080;-78
2021/04/30 02:18:39;;;;;;;24.42;8.05;;;;;;;7.09;100.00;101219.09;10379470;28;20116;-79
2021/04/30 02:23:39;;;;;;;22.58;9.23;;;;;;;7.16;100.00;101224.75;10352283;28;20041;-81
2021/04/30 02:28:40;;;;;;;27.73;8.85;;;;;;;6.91;100.00;101179.97;10388693;28;20044;-79
2021/04/30 02:33:42;;;;;;;22.90;7.38;;;;;;;7.17;100.00;101215.56;10392085;28;20174;-78
2021/04/30 02:38:42;;;;;;;23.38;7.88;;;;;;;7.29;100.00;101232.88;10356167;28;20045;-81
2021/04/30 02:43:43;;;;;;;18.15;7.40;;;;;;;7.35;100.00;101236.97;10383099;28;20037;-80
2021/04/30 02:48:45;;;;;;;22.08;8.38;;;;;;;7.17;100.00;101210.19;10375887;28;20033;-79
2021/04/30 02:53:45;;;;;;;20.90;8.05;;;;;;;7.35;100.00;101220.81;10346961;28;20075;-81
2021/04/30 02:58:46;;;;;;;24.70;7.47;;;;;;;7.12;99.97;101202.31;10366641;28;20153;-81
2021/04/30 03:03:46;;;;;;;22.35;7.28;;;;;;;7.43;100.00;101227.25;10378882;28;20079;-79
2021/04/30 03:08:52;;;;;;;20.85;6.97;;;;;;;7.09;98.57;101170.69;10375725;28;20037;-79
2021/04/30 03:13:52;;;;;;;25.05;6.88;;;;;;;7.48;97.98;101225.16;10345808;28;20040;-79
2021/04/30 03:18:53;;;;;;;23.58;6.85;;;;;;;7.44;97.98;101226.94;10375796;28;20959;-79
2021/04/30 03:23:54;;;;;;;27.63;7.70;;;;;;;7.46;99.11;101227.38;10368966;28;20065;-79
2021/04/30 03:28:54;;;;;;;21.25;6.85;;;;;;;7.47;98.87;101222.78;10384468;28;20493;-80
2021/04/30 03:33:55;;;;;;;18.30;6.60;;;;;;;7.46;99.35;101221.22;10366210;28;20148;-80
2021/04/30 03:38:59;;;;;;;14.93;5.75;;;;;;;7.46;99.04;101216.63;10382908;28;20504;-79
2021/04/30 03:44:00;;;;;;;16.80;6.47;;;;;;;7.06;99.05;101155.22;10385651;28;20049;-80
2021/04/30 03:49:00;;;;;;;18.92;5.97;;;;;;;7.43;99.01;101217.28;10389029;28;20039;-80
2021/04/30 03:54:01;;;;;;;20.20;6.53;;;;;;;7.32;99.79;101205.34;10367867;28;20053;-79
2021/04/30 03:59:02;;;;;;;14.95;6.20;;;;;;;7.29;100.00;101200.59;10365456;28;20159;-80
2021/04/30 04:04:03;;;;;;;22.92;6.93;;;;;;;7.46;100.00;101216.63;10361834;28;20111;-79
2021/04/30 04:09:04;;;;;;;16.58;6.38;;;;;;;7.46;100.00;101215.84;10375624;28;20044;-81
2021/04/30 04:14:05;;;;;;;21.63;7.10;;;;;;;7.12;100.00;101153.91;10383276;28;20391;-81
2021/04/30 04:19:05;;;;;;;18.05;6.30;;;;;;;7.11;100.00;101156.94;10373746;28;20102;-79
2021/04/30 04:24:06;;;;;;;24.38;7.35;;;;;;;7.46;100.00;101211.25;10383259;28;20079;-80
2021/04/30 04:29:08;;;;;;;21.13;7.15;;;;;;;7.45;100.00;101203.50;10355220;28;20045;-80
2021/04/30 04:34:08;;;;;;;19.73;6.25;;;;;;;7.47;100.00;101202.06;10376152;28;20163;-80
2021/04/30 04:39:09;;;;;;;14.82;4.70;;;;;;;7.46;100.00;101195.13;10390931;28;20045;-80
2021/04/30 04:44:09;;;;;;;17.63;5.53;;;;;;;7.36;100.00;101195.50;10369478;28;20064;-82
2021/04/30 04:49:12;;;;;;;15.25;5.38;;;;;;;7.17;100.00;101177.94;10385432;28;20052;-81
2021/04/30 04:54:13;;;;;;;18.77;5.25;;;;;;;7.18;100.00;101195.63;10386962;28;20537;-81
2021/04/30 04:59:14;;;;;;;19.40;6.68;;;;;;;7.31;100.00;101236.81;10375790;28;20077;-83
2021/04/30 05:04:14;;;;;;;15.82;4.63;;;;;;;7.25;100.00;101210.47;10386331;28;20075;-82
2021/04/30 05:09:15;;;;;;;17.63;6.32;;;;;;;7.08;100.00;101187.97;10365239;28;20056;-80
2021/04/30 05:14:16;;;;;;;18.80;6.72;;;;;;;7.37;100.00;101240.13;10403981;28;20041;-81
2021/04/30 05:19:17;;;;;;;11.90;4.88;;;;;;;6.97;100.00;101190.22;10402077;28;20062;-83
2021/04/30 05:24:18;;;;;;;18.60;5.05;;;;;;;6.97;100.00;101184.06;10372213;28;20033;-80
2021/04/30 05:29:18;;;;;;;18.42;5.82;;;;;;;7.34;100.00;101248.84;10378301;28;20495;-81
2021/04/30 05:34:19;;;;;;;14.48;4.60;;;;;;;7.41;100.00;101251.81;10353220;28;20063;-83
2021/04/30 05:39:20;;;;;;;14.68;4.40;;;;;;;7.55;100.00;101246.94;10360932;28;21144;-80
2021/04/30 05:44:20;;;;;;;13.98;4.35;;;;;;;7.69;100.00;101256.63;10334129;28;20172;-80
2021/04/30 05:49:21;;;;;;;12.75;3.83;;;;;;;7.44;100.00;101202.72;10353563;28;20453;-82
2021/04/30 05:54:22;;;;;;;13.00;3.85;;;;;;;6.99;100.00;101128.09;10364767;28;20047;-81
2021/04/30 05:59:22;;;;;;;18.77;4.75;;;;;;;7.10;100.00;101145.41;10371095;28;20450;-80
2021/04/30 06:04:25;;;;;;;12.90;3.88;;;;;;;7.86;99.78;101240.34;10349283;28;20041;-81
2021/04/30 06:09:26;;;;;;;16.10;4.70;;;;;;;8.05;99.40;101259.50;10369419;28;20040;-83
2021/04/30 06:14:32;;;;;;;14.50;3.92;;;;;;;8.12;99.39;101258.19;10373141;28;20041;-81
2021/04/30 06:19:33;;;;;;;24.08;4.18;;;;;;;7.91;98.39;101213.22;10356422;28;20127;-81
2021/04/30 06:24:33;;;;;;;13.90;3.35;;;;;;;8.31;98.63;101282.69;10341845;28;20145;-83
2021/04/30 06:29:34;;;;;;;15.10;3.90;;;;;;;8.33;98.97;101274.28;10407713;28;20520;-81
2021/04/30 06:34:35;;;;;;;24.15;5.43;;;;;;;7.74;98.65;101173.03;10388848;28;20749;-81
2021/04/30 06:39:35;;;;;;;15.00;4.30;;;;;;;8.39;97.87;101246.78;10349393;28;20563;-82
2021/04/30 06:44:36;;;;;;;17.92;3.65;;;;;;;8.65;97.40;101269.97;10360818;28;20057;-82
2021/04/30 06:49:36;;;;;;;27.88;4.20;;;;;;;8.86;96.15;101270.66;10391087;28;20103;-82
2021/04/30 06:54:39;;;;;;;21.38;3.92;;;;;;;8.93;94.51;101248.53;10364855;28;20292;-81
2021/04/30 06:59:40;;;;;;;14.77;3.35;;;;;;;9.55;92.63;101278.94;10394700;28;20130;-80
2021/04/30 07:04:40;;;;;;;10.93;3.33;;;;;;;9.47;91.23;101217.78;10371867;28;20356;-80
2021/04/30 07:09:41;;;;;;;10.05;3.38;;;;;;;10.08;89.30;101295.84;10411924;28;20064;-82
2021/04/30 07:14:42;;;;;;;14.90;3.55;;;;;;;10.34;88.30;101275.72;10356789;28;20127;-81
2021/04/30 07:19:42;;;;;;;7.70;3.05;;;;;;;10.43;86.68;101262.84;10374190;28;20037;-83
2021/04/30 07:30:49;;;;;;;17.42;3.53;;;;;;;10.58;85.44;101278.28;10410186;28;20037;-82
2021/04/30 07:35:49;;;;;;;14.45;4.00;;;;;;;10.93;83.52;101274.88;10401653;28;20041;-82
2021/04/30 07:40:50;;;;;;;16.75;3.50;;;;;;;11.52;79.30;101234.41;10391818;28;20131;-82
2021/04/30 07:45:50;;;;;;;14.63;3.70;;;;;;;12.22;73.94;101245.06;10388852;28;20052;-81
2021/04/30 07:50:51;;;;;;;16.73;5.18;;;;;;;12.47;72.50;101266.41;10388009;28;20040;-81
2021/04/30 07:55:52;;;;;;;15.02;4.22;;;;;;;12.11;72.83;101271.19;10363096;28;20057;-80
2021/04/30 08:00:58;;;;;;;11.57;3.97;;;;;;;11.79;74.19;101260.50;10368829;28;20160;-82
2021/04/30 08:05:58;;;;;;;11.82;3.95;;;;;;;11.62;74.82;101269.06;10379420;28;20511;-81
2021/04/30 08:10:59;;;;;;;15.52;4.00;;;;;;;11.41;76.06;101272.88;10366459;28;20037;-82
2021/04/30 08:16:00;;;;;;;12.07;3.42;;;;;;;11.26;77.93;101268.25;10386406;28;20516;-82
2021/04/30 08:21:00;;;;;;;13.57;3.92;;;;;;;10.78;80.11;101267.56;10384796;28;20032;-79
2021/04/30 08:26:01;;;;;;;12.38;4.68;;;;;;;10.61;79.24;101278.75;10377457;28;20787;-81
2021/04/30 08:31:01;;;;;;;13.93;4.10;;;;;;;10.51;80.73;101286.22;10369622;28;20141;-81
2021/04/30 08:36:02;;;;;;;15.70;4.80;;;;;;;10.41;80.08;101297.53;10387499;28;20502;-79
2021/04/30 08:41:03;;;;;;;10.55;4.40;;;;;;;10.23;79.66;101301.63;10377620;28;20041;-81
2021/04/30 08:46:04;;;;;;;15.60;5.18;;;;;;;10.04;79.14;101246.38;10385681;28;20064;-80
2021/04/30 08:51:05;;;;;;;14.38;5.07;;;;;;;10.02;79.81;101248.63;10383779;28;20427;-81
2021/04/30 08:56:06;;;;;;;14.27;4.60;;;;;;;10.12;81.64;101261.63;10352984;28;20107;-78
2021/04/30 09:01:06;;;;;;;13.82;5.30;;;;;;;10.39;81.95;101304.41;10351919;28;20600;-80
2021/04/30 09:06:07;;;;;;;17.83;5.00;;;;;;;9.98;82.31;101258.53;10381322;28;20067;-81
2021/04/30 09:11:07;;;;;;;14.73;4.25;;;;;;;10.86;82.72;101328.78;10380979;28;20366;-82
2021/04/30 09:16:08;;;;;;;15.50;5.00;;;;;;;10.91;83.03;101309.63;10355714;28;20051;-82
2021/04/30 09:21:12;;;;;;;20.17;7.35;;;;;;;10.69;82.27;101302.09;10362818;28;20611;-82
2021/04/30 09:26:27;;;;;;;18.20;5.57;;;;;;;10.89;82.69;101311.88;10379338;28;20654;-81
2021/04/30 09:31:46;;;;;;;14.55;5.40;;;;;;;10.77;83.79;101314.66;10377549;28;20049;-81
2021/04/30 09:36:53;;;;;;;10.52;4.80;;;;;;;10.67;81.57;101305.13;10343898;28;20063;-81
2021/04/30 09:42:16;;;;;;;8.07;4.70;;;;;;;11.30;78.30;101325.19;10341419;28;20040;-79
2021/04/30 09:47:28;;;;;;;14.95;4.20;;;;;;;11.45;78.75;101304.63;10385334;28;20123;-83
2021/04/30 09:52:31;;;;;;;14.98;5.05;;;;;;;11.52;77.09;101326.44;10376543;28;20041;-80
2021/04/30 09:57:33;;;;;;;11.30;5.72;;;;;;;11.27;74.96;101294.22;10352611;28;20184;-79
2021/04/30 10:02:35;;;;;;;9.82;4.75;;;;;;;11.16;75.71;101298.59;10367938;28;20126;-80
2021/04/30 10:07:38;;;;;;;11.25;6.60;;;;;;;11.28;76.58;101322.06;10388626;28;20037;-82
2021/04/30 10:12:57;;;;;;;12.32;7.18;;;;;;;11.20;77.86;101299.47;10374771;28;20036;-81
2021/04/30 10:18:02;;;;;;;9.82;6.20;;;;;;;11.29;80.31;101313.59;10364878;28;20034;-80
2021/04/30 10:23:06;;;;;;;9.63;6.40;;;;;;;11.65;77.43;101319.78;10364577;28;20914;-79
2021/04/30 10:28:08;;;;;;;10.23;6.28;;;;;;;11.49;77.08;101306.28;10382840;28;20095;-79
2021/04/30 10:33:22;;;;;;;9.70;5.53;;;;;;;11.40;75.99;101320.00;10388751;28;20037;-80
2021/04/30 10:38:25;;;;;;;10.65;6.03;;;;;;;10.94;77.07;101265.63;10342899;28;20984;-79
2021/04/30 10:43:26;;;;;;;10.63;5.93;;;;;;;11.18;79.90;101321.44;10356842;28;20120;-79
2021/04/30 10:48:30;;;;;;;9.10;5.68;;;;;;;11.05;81.20;101319.97;10385990;28;20036;-84
2021/04/30 10:53:31;;;;;;;10.60;5.78;;;;;;;10.44;81.37;101264.44;10368957;28;20373;-81
2021/04/30 10:58:39;;;;;;;7.75;5.22;;;;;;;10.75;80.85;101323.13;10378374;28;20045;-79
2021/04/30 11:03:40;;;;;;;9.25;5.20;;;;;;;10.74;82.55;101320.75;10390613;28;20138;-79
2021/04/30 11:08:55;;;;;;;8.30;4.75;;;;;;;10.43;80.58;101284.47;10392240;28;20508;-79
2021/04/30 11:14:24;;;;;;;5.57;3.65;;;;;;;10.51;82.61;101334.88;10391323;28;20033;-81
2021/04/30 11:19:30;;;;;;;7.75;3.80;;;;;;;10.26;82.38;101273.94;10363334;28;20033;-81
2021/04/30 11:24:36;;;;;;;5.15;3.30;;;;;;;10.71;80.74;101326.88;10386158;28;20057;-82
2021/04/30 11:29:36;;;;;;;6.15;3.63;;;;;;;10.45;81.37;101320.03;10373162;28;20048;-81
2021/04/30 11:34:56;;;;;;;4.80;2.83;;;;;;;10.21;79.98;101282.31;10388939;28;20761;-81
2021/04/30 11:39:57;;;;;;;6.00;3.05;;;;;;;10.50;79.78;101300.84;10373058;28;20105;-83
2021/04/30 11:44:59;;;;;;;5.85;3.08;;;;;;;10.78;77.93;101332.47;10408726;28;20279;-81
2021/04/30 11:50:00;;;;;;;6.20;3.00;;;;;;;10.83;77.84;101329.50;10405401;28;20096;-83
2021/04/30 12:00:20;;;;;;;5.80;3.20;;;;;;;10.37;78.35;101272.31;10383999;28;20045;-84
2021/04/30 12:05:21;;;;;;;6.78;3.00;;;;;;;10.66;78.04;101313.63;10372063;28;21720;-81
2021/04/30 12:10:29;;;;;;;10.30;4.65;;;;;;;10.24;79.79;101276.22;10380983;28;20069;-82
2021/04/30 12:15:33;;;;;;;11.82;4.65;;;;;;;10.27;81.35;101329.56;10365722;28;20055;-81
2021/04/30 12:20:36;;;;;;;13.75;5.65;;;;;;;9.85;82.98;101286.72;10389003;28;20048;-80
2021/04/30 12:25:45;;;;;;;9.80;5.20;;;;;;;10.05;85.93;101339.78;10365812;28;20045;-81
2021/04/30 12:30:49;;;;;;;11.93;6.28;;;;;;;9.99;88.11;101341.13;10379918;28;20044;-80
2021/04/30 12:35:49;;;;;;;9.98;5.65;;;;;;;9.66;88.15;101284.63;10353659;28;20052;-79
2021/04/30 12:40:50;;;;;;;10.73;5.60;;;;;;;9.57;88.41;101292.88;10341918;28;20758;-78
2021/04/30 12:45:51;;;;;;;10.90;6.18;;;;;;;9.80;90.80;101349.06;10393475;28;20053;-78
2021/04/30 12:50:55;;;;;;;16.15;8.35;;;;;;;9.65;93.11;101332.44;10369163;28;20061;-78
2021/04/30 12:55:56;;;;;;;11.30;6.90;;;;;;;9.43;93.11;101270.84;10355779;28;20065;-78
2021/04/30 13:00:59;;;;;;;10.57;7.00;;;;;;;10.06;95.57;101325.13;10386935;28;20654;-78
2021/04/30 13:06:01;;;;;;;15.77;7.60;;;;;;;10.02;91.77;101297.25;10380744;28;20084;-80
2021/04/30 13:11:07;;;;;;;12.90;7.90;;;;;;;10.33;88.99;101344.44;10383654;28;20144;-80
2021/04/30 13:16:08;;;;;;;10.68;7.25;;;;;;;10.35;89.19;101336.75;10386799;28;20025;-80
2021/04/30 13:21:08;;;;;;;13.20;7.88;;;;;;;10.15;91.47;101290.66;10395575;28;20050;-75
2021/04/30 13:26:20;;;;;;;15.02;7.88;;;;;;;10.53;91.55;101327.19;10361025;28;20557;-81
2021/04/30 13:31:20;;;;;;;15.35;8.88;;;;;;;10.66;88.49;101324.44;10347434;28;20028;-80
2021/04/30 13:36:21;;;;;;;12.07;7.70;;;;;;;10.63;86.66;101330.50;10360173;28;20052;-80
2021/04/30 13:41:25;;;;;;;11.43;7.43;;;;;;;10.70;84.75;101303.66;10378998;28;20050;-82
2021/04/30 13:46:25;;;;;;;10.00;7.32;;;;;;;10.54;86.55;101317.97;10379252;28;20057;-83
2021/04/30 13:51:26;;;;;;;11.18;7.05;;;;;;;10.35;84.79;101277.31;10356361;28;20540;-83
2021/04/30 13:56:26;;;;;;;10.02;6.93;;;;;;;10.57;84.38;101279.41;10346283;28;20055;-83
2021/04/30 14:01:27;;;;;;;8.38;6.50;;;;;;;10.72;83.75;101279.75;10350306;28;20033;-83
2021/04/30 14:06:27;;;;;;;15.63;7.63;;;;;;;10.77;82.92;101317.34;10363746;28;20041;-82
2021/04/30 14:11:29;;;;;;;11.73;7.03;;;;;;;10.94;82.63;101314.31;10381466;28;20057;-84
2021/04/30 14:16:29;;;;;;;10.48;6.63;;;;;;;10.79;80.79;101266.41;10358941;28;20049;-81
2021/04/30 14:21:30;;;;;;;14.63;7.10;;;;;;;10.97;80.20;101313.59;10352356;28;20052;-84
2021/04/30 14:26:34;;;;;;;12.40;6.70;;;;;;;11.02;78.79;101319.91;10368776;28;20098;-82
2021/04/30 14:31:35;;;;;;;10.73;6.55;;;;;;;11.07;77.38;101306.09;10368114;28;20033;-82
2021/04/30 14:36:39;;;;;;;11.95;8.05;;;;;;;10.52;75.67;101239.13;10385822;28;20056;-87
2021/04/30 14:41:42;;;;;;;12.88;6.35;;;;;;;11.10;75.91;101316.22;10333946;28;20513;-85
2021/04/30 14:46:43;;;;;;;9.95;5.90;;;;;;;11.16;75.68;101287.75;10340357;28;20103;-83
2021/04/30 14:51:44;;;;;;;10.00;6.13;;;;;;;11.41;75.20;101305.34;10367899;28;20556;-82
2021/04/30 14:56:47;;;;;;;11.93;5.45;;;;;;;11.62;69.81;101201.34;10347629;28;20034;-83
2021/04/30 15:01:48;;;;;;;10.48;5.70;;;;;;;12.37;68.53;101250.72;10335438;28;20446;-84
2021/04/30 15:06:48;;;;;;;7.90;5.50;;;;;;;12.92;70.08;101286.50;10332107;28;20070;-84
2021/04/30 15:11:52;;;;;;;10.13;5.68;;;;;;;13.02;66.28;101230.84;10339302;28;20531;-77
2021/04/30 15:16:54;;;;;;;13.20;6.10;;;;;;;12.59;62.37;101230.19;10300654;28;20542;-77
2021/04/30 15:21:57;;;;;;;7.63;5.43;;;;;;;13.15;63.14;101293.84;10320360;28;20058;-75
2021/04/30 15:26:59;;;;;;;12.65;5.82;;;;;;;12.56;63.49;101231.72;10339260;28;20054;-76
2021/04/30 15:32:01;;;;;;;9.20;5.72;;;;;;;12.88;62.52;101285.66;10322242;28;20116;-76
2021/04/30 15:37:02;;;;;;;8.73;5.60;;;;;;;13.17;63.05;101280.66;10325992;28;20475;-75
2021/04/30 15:42:04;;;;;;;10.13;5.57;;;;;;;12.63;61.59;101242.66;10323360;28;20525;-76
2021/04/30 15:47:05;;;;;;;10.55;5.78;;;;;;;12.79;61.08;101271.56;10304579;28;20509;-77
2021/04/30 15:52:05;;;;;;;7.90;5.72;;;;;;;12.75;60.95;101262.63;10282739;28;20045;-76
2021/04/30 15:57:06;;;;;;;9.40;5.43;;;;;;;12.23;61.47;101252.06;10324869;28;20655;-77
2021/04/30 16:02:08;;;;;;;8.57;5.47;;;;;;;12.32;62.69;101297.13;10335348;28;20563;-76
2021/04/30 16:07:12;;;;;;;9.13;5.63;;;;;;;11.96;63.01;101258.50;10370600;28;20044;-76
2021/04/30 16:12:12;;;;;;;10.77;5.60;;;;;;;11.99;63.50;101317.41;10341187;28;20523;-77
2021/04/30 16:17:13;;;;;;;9.48;5.72;;;;;;;11.70;64.06;101292.41;10381793;28;20041;-77
2021/04/30 16:22:14;;;;;;;11.50;6.00;;;;;;;11.85;63.40;101301.59;10365181;28;20159;-77
2021/04/30 16:27:16;;;;;;;9.85;5.95;;;;;;;12.04;62.38;101303.56;10366144;28;20037;-76
2021/04/30 16:32:19;;;;;;;10.77;6.72;;;;;;;11.07;64.31;101224.94;10377448;28;20662;-76
2021/04/30 16:37:22;;;;;;;;;;;;;;;11.48;64.18;101318.25;10375209;28;20037;-77
2021/04/30 16:42:24;;;;;;;12.13;6.22;;;;;;;11.42;65.89;101315.03;10371735;28;20489;-77
2021/04/30 16:47:25;;;;;;;8.90;4.97;;;;;;;11.30;65.18;101325.97;10352618;28;20072;-77
2021/04/30 16:52:27;;;;;;;12.35;4.97;;;;;;;10.96;65.84;101285.00;10369028;28;20040;-77
2021/04/30 16:57:28;;;;;;;19.42;6.10;;;;;;;10.78;66.50;101278.38;10365009;28;20064;-77
2021/04/30 17:02:28;;;;;;;10.35;4.43;;;;;;;10.33;67.15;101214.72;10359266;28;20043;-77
2021/04/30 17:07:29;;;;;;;11.40;5.47;;;;;;;10.89;68.59;101333.53;10359785;28;20048;-78
2021/04/30 17:12:31;;;;;;;7.80;4.47;;;;;;;10.82;68.24;101333.34;10358864;28;21124;-78
2021/04/30 17:17:31;;;;;;;9.10;4.45;;;;;;;10.72;68.68;101334.66;10369223;28;20048;-78
2021/04/30 17:22:32;;;;;;;10.52;4.20;;;;;;;10.61;68.80;101327.41;10356314;28;20856;-78
2021/04/30 17:27:35;;;;;;;13.57;4.38;;;;;;;10.46;69.36;101332.41;10375592;28;20140;-78
2021/04/30 17:32:38;;;;;;;5.90;4.00;;;;;;;10.35;70.02;101336.75;10345771;28;22012;-83
2021/04/30 17:37:40;;;;;;;10.30;4.20;;;;;;;10.34;69.89;101337.88;10362327;28;20047;-84
2021/04/30 17:42:41;;;;;;;12.18;5.25;;;;;;;10.38;70.33;101329.88;10352712;28;20107;-85
2021/04/30 17:47:42;;;;;;;12.73;5.03;;;;;;;10.25;71.20;101326.41;10353209;28;20069;-82
2021/04/30 17:52:42;;;;;;;7.97;4.75;;;;;;;10.21;72.05;101325.53;10358891;28;20040;-86
2021/04/30 17:57:43;;;;;;;12.40;4.88;;;;;;;10.11;71.43;101300.59;10394284;28;20037;-89
2021/04/30 18:02:44;;;;;;;11.00;4.82;;;;;;;10.14;72.54;101332.31;10419146;28;20121;-86
2021/04/30 18:07:44;;;;;;;9.80;4.18;;;;;;;9.93;72.21;101320.91;10354867;28;20040;-80
2021/04/30 18:12:45;;;;;;;11.77;4.28;;;;;;;9.89;73.50;101341.63;10370732;28;20470;-80
2021/04/30 18:17:45;;;;;;;7.38;4.53;;;;;;;9.54;73.30;101309.75;10359877;28;20079;-79
2021/04/30 18:22:46;;;;;;;10.85;4.47;;;;;;;9.47;72.83;101317.63;10353361;28;20041;-85
2021/04/30 18:27:51;;;;;;;10.10;4.32;;;;;;;9.44;72.68;101321.00;10354481;28;20048;-84
2021/04/30 18:32:52;;;;;;;8.80;4.90;;;;;;;9.21;72.75;101310.69;10356294;28;20518;-86
2021/04/30 18:37:54;;;;;;;9.70;4.97;;;;;;;8.64;73.79;101236.09;10359859;28;20091;-84
2021/04/30 18:42:55;;;;;;;12.93;5.43;;;;;;;9.34;76.12;101372.75;10357901;28;20037;-87
2021/04/30 18:47:56;;;;;;;10.32;5.38;;;;;;;9.24;76.76;101377.47;10339750;28;20183;-85
2021/04/30 18:52:58;;;;;;;13.95;5.60;;;;;;;8.87;77.35;101330.78;10382639;28;20127;-87
2021/04/30 18:57:58;;;;;;;9.85;5.90;;;;;;;8.53;78.27;101288.84;10367902;28;20502;-88
2021/04/30 19:02:59;;;;;;;12.40;5.97;;;;;;;8.91;79.28;101369.41;10341945;28;20045;-86
2021/04/30 19:08:02;;;;;;;12.10;5.75;;;;;;;8.83;80.22;101389.97;10359128;28;20504;-82
2021/04/30 19:13:03;;;;;;;15.60;7.22;;;;;;;8.51;82.15;101369.22;10376282;28;20048;-83
2021/04/30 19:18:05;;;;;;;12.57;6.93;;;;;;;8.52;83.84;101395.06;10372770;28;20430;-84
2021/04/30 19:23:10;;;;;;;14.02;6.30;;;;;;;8.37;84.94;101405.28;10383788;28;20032;-84
2021/04/30 19:28:10;;;;;;;13.02;7.10;;;;;;;7.84;85.93;101355.63;10372356;28;20137;-83
2021/04/30 19:33:15;;;;;;;15.27;5.93;;;;;;;7.86;87.88;101374.94;10400232;28;20045;-82
2021/04/30 19:38:15;;;;;;;13.95;6.35;;;;;;;7.86;88.56;101407.25;10411352;28;20056;-86
2021/04/30 19:43:18;;;;;;;13.02;6.03;;;;;;;7.76;89.01;101408.41;10394129;28;20043;-88
2021/04/30 19:48:22;;;;;;;;;;;;;;;7.76;89.90;101421.88;10391062;28;20099;-86
2021/04/30 19:53:24;;;;;;;13.48;6.82;;;;;;;7.66;89.47;101424.13;10355477;28;19920;-86
2021/04/30 19:58:26;;;;;;;18.33;12.43;;;;;;;7.44;90.00;101401.78;10384537;28;20036;-83
2021/04/30 20:03:32;;;;;;;17.30;11.02;;;;;;;7.31;90.14;101392.00;10385231;28;20516;-83
2021/04/30 20:08:40;;;;;;;59.72;34.33;;;;;;;6.77;90.54;101331.50;10363293;28;20524;-84
2021/04/30 20:13:41;;;;;;;30.15;15.38;;;;;;;7.39;91.27;101445.00;10354940;28;20140;-83
2021/04/30 20:18:43;;;;;;;17.98;9.95;;;;;;;6.94;91.34;101367.50;10367102;28;20949;-81
2021/04/30 20:23:48;;;;;;;16.70;8.75;;;;;;;7.13;91.74;101413.59;10384296;28;20040;-82
2021/04/30 20:28:52;;;;;;;21.13;8.13;;;;;;;7.19;91.93;101431.13;10367956;28;22079;-82
2021/04/30 20:33:54;;;;;;;13.35;7.43;;;;;;;6.41;92.82;101323.03;10367881;28;20222;-80
2021/04/30 20:38:56;;;;;;;16.30;7.80;;;;;;;6.92;93.35;101418.09;10350275;28;20049;-81
2021/04/30 20:43:59;;;;;;;24.38;10.43;;;;;;;6.97;93.88;101442.09;10334922;28;20047;-80
2021/04/30 20:49:06;;;;;;;;;;;;;;;6.88;94.51;101439.41;10367269;28;20489;-79
2021/04/30 20:54:23;;;;;;;16.50;8.57;;;;;;;6.81;95.01;101433.75;10387448;28;20323;-80
2021/04/30 20:59:23;;;;;;;16.67;7.88;;;;;;;6.45;95.27;101389.22;10390505;28;20151;-80
2021/04/30 21:04:24;;;;;;;15.05;8.15;;;;;;;6.04;96.32;101346.75;10359686;28;20248;-85
2021/04/30 21:09:25;;;;;;;18.40;9.75;;;;;;;6.64;96.88;101439.16;10378409;28;20103;-83
2021/04/30 21:14:30;;;;;;;16.10;9.93;;;;;;;6.61;97.58;101443.25;10381765;28;20052;-84
2021/04/30 21:19:32;;;;;;;18.52;9.80;;;;;;;6.37;97.61;101413.41;10383936;28;20135;-85
2021/04/30 21:24:34;;;;;;;17.15;9.52;;;;;;;6.45;98.85;101447.53;10355547;28;20039;-80
2021/04/30 21:29:35;;;;;;;20.10;10.95;;;;;;;6.12;99.87;101399.66;10357296;28;20045;-79
2021/04/30 21:34:36;;;;;;;21.60;11.98;;;;;;;6.08;99.88;101396.00;10360388;28;20041;-80
2021/04/30 21:39:37;;;;;;;21.80;12.88;;;;;;;6.20;100.00;101425.69;10384276;28;20041;-79
2021/04/30 21:44:38;;;;;;;26.02;12.35;;;;;;;6.14;100.00;101443.09;10363705;28;20032;-80
2021/04/30 21:49:38;;;;;;;15.93;12.13;;;;;;;6.00;100.00;101439.75;10362131;28;20049;-79
2021/04/30 21:54:39;;;;;;;17.08;10.70;;;;;;;5.62;100.00;101383.91;10303964;28;20045;-79
2021/04/30 21:59:39;;;;;;;18.70;10.95;;;;;;;5.93;100.00;101449.00;10335025;28;20321;-79
2021/04/30 22:04:40;;;;;;;16.60;8.93;;;;;;;5.47;100.00;101396.63;10337406;28;20049;-79
2021/04/30 22:09:43;;;;;;;17.75;9.48;;;;;;;5.75;100.00;101444.69;10315661;28;20100;-80
2021/04/30 22:14:43;;;;;;;;;;;;;;;5.76;100.00;101470.41;10340968;28;20115;-79
2021/04/30 22:19:44;;;;;;;15.82;8.13;;;;;;;5.69;100.00;101453.97;10327230;28;20037;-79
2021/04/30 22:24:44;;;;;;;17.13;9.10;;;;;;;5.67;100.00;101456.19;10373431;28;20657;-79
2021/04/30 22:29:46;;;;;;;19.88;8.73;;;;;;;5.67;100.00;101458.88;10357384;28;20684;-80
2021/04/30 22:34:48;;;;;;;15.95;8.90;;;;;;;5.62;100.00;101469.72;10379051;28;20059;-79
2021/04/30 22:39:49;;;;;;;14.02;8.73;;;;;;;5.30;100.00;101420.72;10386691;28;20128;-79
2021/04/30 22:44:49;;;;;;;18.83;8.38;;;;;;;5.64;100.00;101483.63;10405746;28;20051;-80
2021/04/30 22:49:50;;;;;;;13.85;7.28;;;;;;;5.55;100.00;101466.69;10366481;28;20065;-80
2021/04/30 22:54:51;;;;;;;12.20;6.38;;;;;;;5.35;100.00;101423.25;10361730;28;20055;-80
2021/04/30 22:59:51;;;;;;;16.40;6.40;;;;;;;5.51;100.00;101447.78;10352143;28;20069;-79
2021/04/30 23:04:52;;;;;;;12.32;6.90;;;;;;;5.73;100.00;101482.56;10383473;28;20825;-80
2021/04/30 23:14:53;;;;;;;16.63;6.38;;;;;;;5.27;100.00;101432.06;10379410;28;20039;-80
2021/04/30 23:19:53;;;;;;;17.63;6.43;;;;;;;5.24;100.00;101432.66;10362678;28;20325;-80